createdAt,value
2023-04-27T00:08:22.008Z,102140.47
2023-04-27T00:18:43.386Z,102144.66
2023-04-27T00:29:04.753Z,102149.78
2023-04-27T00:39:26.112Z,102160.03
2023-04-27T00:49:47.450Z,102165.06
2023-04-27T01:00:11.006Z,102174.25
2023-04-27T01:10:32.520Z,102185.16
2023-04-27T01:20:54.583Z,102202.13
2023-04-27T01:31:16.054Z,102193.50
2023-04-27T01:41:37.560Z,102196.00
2023-04-27T01:51:59.158Z,102190.72
2023-04-27T02:02:20.728Z,102202.00
2023-04-27T02:12:42.233Z,102202.75
2023-04-27T02:23:03.706Z,102201.69
2023-04-27T02:33:25.173Z,102203.38
2023-04-27T02:43:46.891Z,102206.75
2023-04-27T02:54:09.091Z,102211.78
2023-04-27T03:04:30.538Z,102214.25
2023-04-27T03:14:51.973Z,102218.38
2023-04-27T03:25:13.522Z,102215.03
2023-04-27T03:35:34.884Z,102216.59
2023-04-27T03:45:56.390Z,102211.53
2023-04-27T03:56:17.833Z,102210.59
2023-04-27T04:06:39.203Z,102218.25
2023-04-27T04:17:00.658Z,102211.34
2023-04-27T04:27:22.091Z,102214.88
2023-04-27T04:37:43.442Z,102223.34
2023-04-27T04:48:05.137Z,102213.09
2023-04-27T04:58:26.519Z,102225.19
2023-04-27T05:08:48.262Z,102233.94
2023-04-27T05:19:09.600Z,102239.19
2023-04-27T05:29:31.310Z,102236.88
2023-04-27T05:39:52.696Z,102245.84
2023-04-27T05:50:14.133Z,102253.03
2023-04-27T06:00:36.940Z,102252.63
2023-04-27T06:10:58.412Z,102260.72
2023-04-27T06:21:19.807Z,102262.78
2023-04-27T06:31:41.224Z,102267.31
2023-04-27T06:42:04.379Z,102265.84
2023-04-27T06:52:25.825Z,102264.41
2023-04-27T07:02:47.290Z,102250.00
2023-04-27T07:13:09.636Z,102246.66
2023-04-27T07:23:31.596Z,102256.19
2023-04-27T07:33:53.063Z,102258.84
2023-04-27T07:44:15.125Z,102253.72
2023-04-27T07:54:36.482Z,102255.47
2023-04-27T08:04:58.289Z,102241.72
2023-04-27T08:15:20.257Z,102223.63
2023-04-27T08:25:41.605Z,102228.81
2023-04-27T08:36:03.111Z,102229.63
2023-04-27T08:46:27.040Z,102230.28
2023-04-27T08:56:48.514Z,102244.03
2023-04-27T09:07:14.038Z,102246.56
2023-04-27T09:17:38.704Z,102248.28
2023-04-27T09:28:00.736Z,102250.88
2023-04-27T09:38:22.904Z,102250.88
2023-04-27T09:48:44.271Z,102248.28
2023-04-27T09:59:16.721Z,102241.19
2023-04-27T10:09:47.270Z,102234.81
2023-04-27T10:20:09.316Z,102237.25
2023-04-27T10:30:34.749Z,102219.56
2023-04-27T10:41:03.370Z,102209.44
2023-04-27T10:51:24.924Z,102212.53
2023-04-27T11:01:48.439Z,102212.09
2023-04-27T11:12:12.748Z,102189.19
2023-04-27T11:22:34.716Z,102180.38
2023-04-27T11:32:56.322Z,102175.84
2023-04-27T11:43:17.810Z,102182.63
2023-04-27T11:53:39.782Z,102181.47
2023-04-27T12:04:02.765Z,102181.66
2023-04-27T12:14:24.818Z,102194.44
2023-04-27T12:24:46.313Z,102171.38
2023-04-27T12:35:08.362Z,102182.91
2023-04-27T12:45:29.827Z,102186.19
2023-04-27T12:55:51.279Z,102182.66
2023-04-27T13:06:12.705Z,102188.44
2023-04-27T13:16:34.222Z,102172.25
2023-04-27T13:26:55.762Z,102169.69
2023-04-27T13:37:17.351Z,102153.72
2023-04-27T13:47:42.305Z,102147.09
2023-04-27T13:58:03.814Z,102135.09
2023-04-27T14:08:25.511Z,102136.41
2023-04-27T14:18:47.000Z,102126.50
2023-04-27T14:29:08.379Z,102120.78
2023-04-27T14:39:29.821Z,102125.16
2023-04-27T14:49:51.417Z,102136.19
2023-04-27T15:00:14.647Z,102118.22
2023-04-27T15:10:36.099Z,102119.38
2023-04-27T15:20:58.275Z,102127.31
2023-04-27T15:31:19.767Z,102126.50
2023-04-27T15:41:41.175Z,102122.63
2023-04-27T15:52:02.548Z,102111.81
2023-04-27T16:02:24.260Z,102113.63
2023-04-27T16:12:45.718Z,102103.19
2023-04-27T16:23:07.129Z,102097.13
2023-04-27T16:33:28.536Z,102080.06
2023-04-27T16:43:50.805Z,102062.88
2023-04-27T16:54:12.752Z,102060.38
2023-04-27T17:04:39.790Z,102056.22
2023-04-27T17:15:01.423Z,102062.63
2023-04-27T17:25:23.200Z,102060.13
2023-04-27T17:35:44.860Z,102059.16
2023-04-27T17:46:07.114Z,102062.22
2023-04-27T17:56:28.572Z,102075.75
2023-04-27T18:06:50.029Z,102076.03
2023-04-27T18:17:11.465Z,102082.41
2023-04-27T18:27:33.014Z,102083.56
2023-04-27T18:37:54.423Z,102080.34
2023-04-27T18:48:15.793Z,102075.34
2023-04-27T18:58:37.232Z,102085.78
2023-04-27T19:08:58.688Z,102092.78
2023-04-27T19:19:20.133Z,102085.19
2023-04-27T19:29:52.086Z,102082.72
2023-04-27T19:40:13.669Z,102097.41
2023-04-27T19:50:38.350Z,102105.25
2023-04-27T20:00:59.870Z,102076.91
2023-04-27T20:11:21.300Z,102078.69
2023-04-27T20:21:43.246Z,102061.47
2023-04-27T20:32:04.843Z,102058.09
2023-04-27T20:42:26.321Z,102054.66
2023-04-27T20:52:47.681Z,102048.69
2023-04-27T21:03:09.192Z,102051.31
2023-04-27T21:13:30.732Z,102055.63
2023-04-27T21:24:04.062Z,102039.31
2023-04-27T21:34:29.121Z,102015.28
2023-04-27T21:44:50.660Z,102024.78
2023-04-27T21:55:12.097Z,102011.91
2023-04-27T22:05:33.600Z,101995.59
2023-04-27T22:15:55.001Z,101991.34
2023-04-27T22:26:16.411Z,101987.97
2023-04-27T22:36:37.992Z,101972.56
2023-04-27T22:47:01.957Z,101958.81
2023-04-27T22:57:23.325Z,101961.44
2023-04-27T23:07:46.253Z,101963.19
2023-04-27T23:18:07.672Z,101949.44
2023-04-27T23:28:29.105Z,101940.84
2023-04-27T23:38:51.216Z,101922.81
2023-04-27T23:49:12.621Z,101908.22
2023-04-27T23:59:35.002Z,101891.91
